createdAt,value
2019-04-03T00:00:12.608Z,30.88
2019-04-03T00:02:40.819Z,28.83
2019-04-03T00:05:09.294Z,35.50
2019-04-03T00:07:37.522Z,36.70
2019-04-03T00:10:08.736Z,34.73
2019-04-03T00:12:37.350Z,33.30
2019-04-03T00:15:06.142Z,33.02
2019-04-03T00:17:34.373Z,33.40
2019-04-03T00:20:03.062Z,36.33
2019-04-03T00:22:31.402Z,32.67
2019-04-03T00:24:59.608Z,31.97
2019-04-03T00:27:28.036Z,32.85
2019-04-03T00:29:56.284Z,35.38
2019-04-03T00:32:24.646Z,39.63
2019-04-03T00:34:53.466Z,33.10
2019-04-03T00:37:23.288Z,36.65
2019-04-03T00:39:53.868Z,37.08
2019-04-03T00:42:24.620Z,32.33
2019-04-03T00:44:54.694Z,30.23
2019-04-03T00:47:25.119Z,32.15
2019-04-03T00:49:53.198Z,38.38
2019-04-03T00:52:21.582Z,37.28
2019-04-03T00:54:49.833Z,34.65
2019-04-03T00:57:18.069Z,40.63
2019-04-03T00:59:46.291Z,41.37
2019-04-03T01:02:16.435Z,33.13
2019-04-03T01:04:44.499Z,37.85
2019-04-03T01:07:12.720Z,35.70
2019-04-03T01:09:41.670Z,35.03
2019-04-03T01:12:09.898Z,34.27
2019-04-03T01:14:38.134Z,35.28
2019-04-03T01:17:06.367Z,43.83
2019-04-03T01:19:36.397Z,36.58
2019-04-03T01:22:05.639Z,35.00
2019-04-03T01:24:34.635Z,35.58
2019-04-03T01:27:02.871Z,33.05
2019-04-03T01:29:31.101Z,37.85
2019-04-03T01:31:59.335Z,34.08
2019-04-03T01:34:27.619Z,37.95
2019-04-03T01:36:55.872Z,31.57
2019-04-03T01:39:24.105Z,34.30
2019-04-03T01:41:52.436Z,38.85
2019-04-03T01:44:20.661Z,35.92
2019-04-03T01:46:48.968Z,31.37
2019-04-03T01:49:17.213Z,34.92
2019-04-03T01:51:45.478Z,29.65
2019-04-03T01:54:13.728Z,32.95
2019-04-03T01:56:42.068Z,35.45
2019-04-03T01:59:10.303Z,34.95
2019-04-03T02:01:39.095Z,36.15
2019-04-03T02:04:07.671Z,36.80
2019-04-03T02:06:35.890Z,37.00
2019-04-03T02:09:06.166Z,32.40
2019-04-03T02:11:34.392Z,34.40
2019-04-03T02:14:02.623Z,32.42
2019-04-03T02:16:30.848Z,27.98
2019-04-03T02:18:59.104Z,29.75
2019-04-03T02:21:28.287Z,31.33
2019-04-03T02:23:56.663Z,30.75
2019-04-03T02:26:24.895Z,27.55
2019-04-03T02:28:53.176Z,31.00
2019-04-03T02:31:21.383Z,30.30
2019-04-03T02:33:50.531Z,30.82
2019-04-03T02:36:18.914Z,31.77
2019-04-03T02:38:47.125Z,33.28
2019-04-03T02:41:15.664Z,29.20
2019-04-03T02:43:46.289Z,28.98
2019-04-03T02:46:14.185Z,28.12
2019-04-03T02:48:42.420Z,32.95
2019-04-03T02:51:10.701Z,37.40
2019-04-03T02:53:38.970Z,32.90
2019-04-03T02:56:07.482Z,29.07
2019-04-03T02:58:37.979Z,34.18
2019-04-03T03:01:07.323Z,30.20
2019-04-03T03:03:36.293Z,31.75
2019-04-03T03:06:04.544Z,31.40
2019-04-03T03:08:32.761Z,32.15
2019-04-03T03:11:02.517Z,29.32
2019-04-03T03:13:34.634Z,29.90
2019-04-03T03:16:01.567Z,30.48
2019-04-03T03:18:30.016Z,26.17
2019-04-03T03:20:58.634Z,31.50
2019-04-03T03:23:26.974Z,27.20
2019-04-03T03:25:55.174Z,28.75
2019-04-03T03:28:23.706Z,28.75
2019-04-03T03:30:59.937Z,28.15
2019-04-03T03:33:32.640Z,27.32
2019-04-03T03:35:52.310Z,30.57
2019-04-03T03:38:20.931Z,27.90
2019-04-03T03:40:49.435Z,26.90
2019-04-03T03:43:17.990Z,24.75
2019-04-03T03:45:46.241Z,27.55
2019-04-03T03:48:14.454Z,28.07
2019-04-03T03:50:42.681Z,28.52
2019-04-03T03:53:12.681Z,26.73
2019-04-03T03:55:41.318Z,26.40
2019-04-03T03:58:12.468Z,32.25
2019-04-03T04:00:39.813Z,27.30
2019-04-03T04:03:10.094Z,27.00
2019-04-03T04:05:38.365Z,25.97
2019-04-03T04:08:10.628Z,29.50
2019-04-03T04:10:37.237Z,26.57
2019-04-03T04:13:05.981Z,29.02
2019-04-03T04:15:34.376Z,29.77
2019-04-03T04:18:03.362Z,28.38
2019-04-03T04:20:31.629Z,33.30
2019-04-03T04:23:00.820Z,31.70
2019-04-03T04:25:30.589Z,30.15
2019-04-03T04:27:59.480Z,28.60
2019-04-03T04:30:27.923Z,27.82
2019-04-03T04:32:56.618Z,29.30
2019-04-03T04:35:25.186Z,27.50
2019-04-03T04:37:55.295Z,31.37
2019-04-03T04:40:23.480Z,26.27
2019-04-03T04:42:51.784Z,30.27
2019-04-03T04:45:20.028Z,29.67
2019-04-03T04:47:48.248Z,29.57
2019-04-03T04:50:24.289Z,25.50
2019-04-03T04:52:51.474Z,32.78
2019-04-03T04:55:19.708Z,29.90
2019-04-03T04:57:48.042Z,29.37
2019-04-03T05:00:16.400Z,26.57
2019-04-03T05:02:44.596Z,27.30
2019-04-03T05:05:12.983Z,28.73
2019-04-03T05:07:41.283Z,30.55
2019-04-03T05:10:09.519Z,27.05
2019-04-03T05:12:39.122Z,23.85
2019-04-03T05:15:08.088Z,25.97
2019-04-03T05:17:36.351Z,27.42
2019-04-03T05:20:05.253Z,35.28
2019-04-03T05:22:33.571Z,25.72
2019-04-03T05:25:02.093Z,28.32
2019-04-03T05:27:33.362Z,28.02
2019-04-03T05:30:00.413Z,26.12
2019-04-03T05:32:28.916Z,25.62
2019-04-03T05:34:57.157Z,27.73
2019-04-03T05:37:25.589Z,30.70
2019-04-03T05:39:55.629Z,33.23
2019-04-03T05:42:24.073Z,33.75
2019-04-03T05:44:52.319Z,36.90
2019-04-03T05:47:20.634Z,27.90
2019-04-03T05:49:51.075Z,24.15
2019-04-03T05:52:19.343Z,30.70
2019-04-03T05:54:47.660Z,31.05
2019-04-03T05:57:16.174Z,34.85
2019-04-03T05:59:44.658Z,31.50
2019-04-03T06:02:16.178Z,32.08
2019-04-03T06:04:42.988Z,32.28
2019-04-03T06:07:11.266Z,33.70
2019-04-03T06:09:39.495Z,32.60
2019-04-03T06:12:09.071Z,32.38
2019-04-03T06:14:37.758Z,30.25
2019-04-03T06:17:05.980Z,30.85
2019-04-03T06:19:35.377Z,30.65
2019-04-03T06:22:04.183Z,30.17
2019-04-03T06:24:32.454Z,28.57
2019-04-03T06:27:00.712Z,28.42
2019-04-03T06:29:29.149Z,29.67
2019-04-03T06:31:58.262Z,36.05
2019-04-03T06:34:26.909Z,33.33
2019-04-03T06:36:55.208Z,35.28
2019-04-03T06:39:24.184Z,31.73
2019-04-03T06:41:52.531Z,29.07
2019-04-03T06:44:22.533Z,30.82
2019-04-03T06:46:53.679Z,32.53
2019-04-03T06:49:21.627Z,29.40
2019-04-03T06:51:50.020Z,30.65
2019-04-03T06:54:18.281Z,34.78
2019-04-03T06:56:46.703Z,32.95
2019-04-03T06:59:16.476Z,35.00
2019-04-03T07:01:45.008Z,31.20
2019-04-03T07:04:13.441Z,32.75
2019-04-03T07:06:44.300Z,32.95
2019-04-03T07:09:22.067Z,29.30
2019-04-03T07:11:43.218Z,30.95
2019-04-03T07:14:11.824Z,28.20
2019-04-03T07:16:40.073Z,28.87
2019-04-03T07:19:08.669Z,26.87
2019-04-03T07:21:37.318Z,37.05
2019-04-03T07:24:05.559Z,32.00
2019-04-03T07:26:35.749Z,35.90
2019-04-03T07:29:04.080Z,30.08
2019-04-03T07:31:32.318Z,27.87
2019-04-03T07:34:02.996Z,29.27
2019-04-03T07:36:30.506Z,30.70
2019-04-03T07:38:59.038Z,23.67
2019-04-03T07:41:27.994Z,33.30
2019-04-03T07:43:56.677Z,32.50
2019-04-03T07:46:26.189Z,31.85
2019-04-03T07:48:54.652Z,28.75
2019-04-03T07:51:23.051Z,26.65
2019-04-03T07:53:52.955Z,25.10
2019-04-03T07:56:21.381Z,30.20
2019-04-03T07:58:49.609Z,27.70
2019-04-03T08:01:18.779Z,29.02
2019-04-03T08:03:47.928Z,25.92
2019-04-03T08:06:16.148Z,28.05
2019-04-03T08:08:45.206Z,24.12
2019-04-03T08:11:15.204Z,30.80
2019-04-03T08:13:43.605Z,26.52
2019-04-03T08:16:13.780Z,24.45
2019-04-03T08:18:42.205Z,26.05
2019-04-03T08:21:10.816Z,30.62
2019-04-03T08:23:39.240Z,26.42
2019-04-03T08:26:07.460Z,24.70
2019-04-03T08:28:44.833Z,22.02
2019-04-03T08:31:13.418Z,29.95
2019-04-03T08:33:43.010Z,27.50
2019-04-03T08:36:23.136Z,22.98
2019-04-03T08:38:43.862Z,25.65
2019-04-03T08:41:11.139Z,30.30
2019-04-03T08:43:39.465Z,29.07
2019-04-03T08:46:09.765Z,28.95
2019-04-03T08:48:37.662Z,26.30
2019-04-03T08:51:06.105Z,23.38
2019-04-03T08:53:34.348Z,23.80
2019-04-03T08:56:02.589Z,25.10
2019-04-03T08:58:30.842Z,26.00
2019-04-03T09:00:59.361Z,27.85
2019-04-03T09:03:27.739Z,24.75
2019-04-03T09:05:55.960Z,25.05
2019-04-03T09:08:24.694Z,25.50
2019-04-03T09:10:54.172Z,25.45
2019-04-03T09:13:23.986Z,23.75
2019-04-03T09:15:52.330Z,26.20
2019-04-03T09:18:21.967Z,22.05
2019-04-03T09:20:50.337Z,29.12
2019-04-03T09:23:18.646Z,27.10
2019-04-03T09:25:47.189Z,25.00
2019-04-03T09:28:15.495Z,25.20
2019-04-03T09:30:43.756Z,25.88
2019-04-03T09:33:13.640Z,26.68
2019-04-03T09:35:42.989Z,23.60
2019-04-03T09:38:11.800Z,28.40
2019-04-03T09:40:40.033Z,27.20
2019-04-03T09:43:08.287Z,28.70
2019-04-03T09:45:36.637Z,33.10
2019-04-03T09:48:06.119Z,35.68
2019-04-03T09:50:34.575Z,36.17
2019-04-03T09:53:02.913Z,38.28
2019-04-03T09:55:35.760Z,36.50
2019-04-03T09:58:03.329Z,42.40
2019-04-03T10:00:31.241Z,34.40
2019-04-03T10:02:59.616Z,43.48
2019-04-03T10:05:28.947Z,44.15
2019-04-03T10:07:58.320Z,46.68
2019-04-03T10:10:26.930Z,43.28
2019-04-03T10:12:55.348Z,47.15
2019-04-03T10:15:23.848Z,48.40
2019-04-03T10:17:52.223Z,51.08
2019-04-03T10:20:21.227Z,44.42
2019-04-03T10:22:49.564Z,44.50
2019-04-03T10:25:18.331Z,47.20
2019-04-03T10:27:46.811Z,43.33
2019-04-03T10:30:15.361Z,47.13
2019-04-03T10:32:43.650Z,40.48
2019-04-03T10:35:11.966Z,47.93
2019-04-03T10:37:40.234Z,40.17
2019-04-03T10:40:10.257Z,39.88
2019-04-03T10:42:39.172Z,41.55
2019-04-03T10:45:08.173Z,43.35
2019-04-03T10:47:42.061Z,42.98
2019-04-03T10:50:07.280Z,44.38
2019-04-03T10:52:35.774Z,48.52
2019-04-03T10:55:05.802Z,42.38
2019-04-03T10:57:35.350Z,43.42
2019-04-03T11:00:06.644Z,45.28
2019-04-03T11:02:35.487Z,38.63
2019-04-03T11:05:06.107Z,36.98
2019-04-03T11:07:34.728Z,39.65
2019-04-03T11:10:03.469Z,39.70
2019-04-03T11:12:32.480Z,38.88
2019-04-03T11:15:00.863Z,38.20
2019-04-03T11:17:29.359Z,34.85
2019-04-03T11:19:58.002Z,36.60
2019-04-03T11:22:26.236Z,27.10
2019-04-03T11:25:18.750Z,31.57
2019-04-03T11:27:47.424Z,37.00
2019-04-03T11:30:18.736Z,33.63
2019-04-03T11:32:45.687Z,30.45
2019-04-03T11:35:14.380Z,34.80
2019-04-03T11:37:42.743Z,35.90
2019-04-03T11:40:11.242Z,36.08
2019-04-03T11:42:39.473Z,35.63
2019-04-03T11:45:07.972Z,34.95
2019-04-03T11:47:36.541Z,34.65
2019-04-03T11:50:08.037Z,32.88
2019-04-03T11:52:36.376Z,36.10
2019-04-03T11:55:10.083Z,35.85
2019-04-03T11:57:36.486Z,35.13
2019-04-03T12:00:13.333Z,33.38
2019-04-03T12:02:44.009Z,33.78
2019-04-03T12:05:13.173Z,39.13
2019-04-03T12:07:42.714Z,35.52
2019-04-03T12:10:11.319Z,34.92
2019-04-03T12:12:40.174Z,30.48
2019-04-03T12:15:09.719Z,33.95
2019-04-03T12:17:38.878Z,34.58
2019-04-03T12:20:09.173Z,33.13
2019-04-03T12:22:37.913Z,29.23
2019-04-03T12:25:06.313Z,29.35
2019-04-03T12:27:36.052Z,31.40
2019-04-03T12:30:07.237Z,24.43
2019-04-03T12:32:38.519Z,27.75
2019-04-03T12:35:08.838Z,26.93
2019-04-03T12:37:37.048Z,18.77
2019-04-03T12:40:08.751Z,23.83
2019-04-03T12:42:37.021Z,21.33
2019-04-03T12:45:05.787Z,18.50
2019-04-03T12:47:34.016Z,17.25
2019-04-03T12:50:02.301Z,23.92
2019-04-03T12:52:31.061Z,21.00
2019-04-03T12:54:59.701Z,20.27
2019-04-03T12:57:28.103Z,20.95
2019-04-03T12:59:56.976Z,20.00
2019-04-03T13:02:25.786Z,18.30
2019-04-03T13:04:54.194Z,17.57
2019-04-03T13:07:23.015Z,18.57
2019-04-03T13:09:51.519Z,19.55
2019-04-03T13:12:22.075Z,19.20
2019-04-03T13:14:50.094Z,18.40
2019-04-03T13:17:18.413Z,14.73
2019-04-03T13:19:47.231Z,14.45
2019-04-03T13:22:18.130Z,14.53
2019-04-03T13:24:48.311Z,12.80
2019-04-03T13:27:16.903Z,15.88
2019-04-03T13:29:45.133Z,13.62
2019-04-03T13:32:16.204Z,15.35
2019-04-03T13:34:43.347Z,9.18
2019-04-03T13:37:11.837Z,11.20
2019-04-03T13:39:40.068Z,11.20
2019-04-03T13:42:08.386Z,11.38
2019-04-03T13:44:36.867Z,9.68
2019-04-03T13:47:07.482Z,9.05
2019-04-03T13:49:35.118Z,9.93
2019-04-03T13:52:08.300Z,9.18
2019-04-03T13:54:34.260Z,7.90
2019-04-03T13:57:02.490Z,7.87
2019-04-03T13:59:30.735Z,11.00
2019-04-03T14:01:58.964Z,8.05
2019-04-03T14:04:27.202Z,8.88
2019-04-03T14:06:55.622Z,8.65
2019-04-03T14:09:24.013Z,8.38
2019-04-03T14:11:52.520Z,8.10
2019-04-03T14:14:21.134Z,9.43
2019-04-03T14:16:49.473Z,11.10
2019-04-03T14:19:17.746Z,13.95
2019-04-03T14:21:46.232Z,14.60
2019-04-03T14:24:14.663Z,14.68
2019-04-03T14:26:45.620Z,16.85
2019-04-03T14:29:12.966Z,17.42
2019-04-03T14:31:42.395Z,20.00
2019-04-03T14:34:10.664Z,21.77
2019-04-03T14:36:39.273Z,22.13
2019-04-03T14:39:09.086Z,22.70
2019-04-03T14:41:37.540Z,25.40
2019-04-03T14:44:07.567Z,23.55
2019-04-03T14:46:36.164Z,24.72
2019-04-03T14:49:04.773Z,28.32
2019-04-03T14:51:33.143Z,27.10
2019-04-03T14:54:01.409Z,24.35
2019-04-03T14:56:30.433Z,25.65
2019-04-03T14:58:59.884Z,25.48
2019-04-03T15:01:28.581Z,23.25
2019-04-03T15:04:00.000Z,23.40
2019-04-03T15:06:27.063Z,21.20
2019-04-03T15:08:55.476Z,21.12
2019-04-03T15:11:24.119Z,18.37
2019-04-03T15:13:52.942Z,25.25
2019-04-03T15:16:21.407Z,24.67
2019-04-03T15:18:49.854Z,23.60
2019-04-03T15:21:18.188Z,20.23
2019-04-03T15:23:46.407Z,26.73
2019-04-03T15:26:14.726Z,23.80
2019-04-03T15:28:43.135Z,26.02
2019-04-03T15:31:14.312Z,23.83
2019-04-03T15:33:42.462Z,26.73
2019-04-03T15:36:10.672Z,24.57
2019-04-03T15:38:39.440Z,25.20
2019-04-03T15:41:07.993Z,27.35
2019-04-03T15:43:36.215Z,22.75
2019-04-03T15:46:04.498Z,25.15
2019-04-03T15:48:32.739Z,27.22
2019-04-03T15:51:01.040Z,23.20
2019-04-03T15:53:29.334Z,22.67
2019-04-03T15:55:57.644Z,22.80
2019-04-03T15:58:27.311Z,21.45
2019-04-03T16:00:56.134Z,18.23
2019-04-03T16:03:25.138Z,20.72
2019-04-03T16:05:53.508Z,16.32
2019-04-03T16:08:21.782Z,18.60
2019-04-03T16:10:50.069Z,16.27
2019-04-03T16:13:20.852Z,19.02
2019-04-03T16:15:48.841Z,18.15
2019-04-03T16:18:19.770Z,17.52
2019-04-03T16:20:49.053Z,17.67
2019-04-03T16:23:17.349Z,16.12
2019-04-03T16:25:48.500Z,15.90
2019-04-03T16:28:15.526Z,17.32
2019-04-03T16:30:46.468Z,16.57
2019-04-03T16:33:21.541Z,15.85
2019-04-03T16:35:46.158Z,17.15
2019-04-03T16:38:15.034Z,15.35
2019-04-03T16:40:43.658Z,14.30
2019-04-03T16:43:13.959Z,14.58
2019-04-03T16:45:42.365Z,15.15
2019-04-03T16:48:10.591Z,13.45
2019-04-03T16:50:38.849Z,16.50
2019-04-03T16:53:07.491Z,15.75
2019-04-03T16:55:36.296Z,13.90
2019-04-03T16:58:04.582Z,14.10
2019-04-03T17:00:32.814Z,17.20
2019-04-03T17:03:01.139Z,13.45
2019-04-03T17:05:29.356Z,16.52
2019-04-03T17:07:57.967Z,15.20
2019-04-03T17:10:26.213Z,13.95
2019-04-03T17:12:54.832Z,20.37
2019-04-03T17:15:23.613Z,14.70
2019-04-03T17:17:51.974Z,20.37
2019-04-03T17:20:22.370Z,16.15
2019-04-03T17:22:50.277Z,12.18
2019-04-03T17:25:18.728Z,15.48
2019-04-03T17:27:55.004Z,14.47
2019-04-03T17:30:18.303Z,14.63
2019-04-03T17:32:47.115Z,15.05
2019-04-03T17:35:16.255Z,15.10
2019-04-03T17:37:44.797Z,13.03
2019-04-03T17:40:13.073Z,20.52
2019-04-03T17:42:41.292Z,14.35
2019-04-03T17:45:09.625Z,14.28
2019-04-03T17:47:37.859Z,14.55
2019-04-03T17:50:06.922Z,12.63
2019-04-03T17:52:36.361Z,14.63
2019-04-03T17:55:09.869Z,13.68
2019-04-03T17:57:39.004Z,16.35
2019-04-03T18:00:10.345Z,16.37
2019-04-03T18:02:38.589Z,19.32
2019-04-03T18:05:07.395Z,16.85
2019-04-03T18:07:37.085Z,27.05
2019-04-03T18:10:09.121Z,12.30
2019-04-03T18:12:36.809Z,14.43
2019-04-03T18:15:07.444Z,15.95
2019-04-03T18:17:35.839Z,13.38
2019-04-03T18:20:05.320Z,19.20
2019-04-03T18:22:33.523Z,12.82
2019-04-03T18:25:01.871Z,17.05
2019-04-03T18:27:33.231Z,15.18
2019-04-03T18:30:00.307Z,14.40
2019-04-03T18:32:29.829Z,17.30
2019-04-03T18:34:58.378Z,14.45
2019-04-03T18:37:26.652Z,16.77
2019-04-03T18:39:54.885Z,17.20
2019-04-03T18:42:23.108Z,17.27
2019-04-03T18:44:52.517Z,15.90
2019-04-03T18:47:20.754Z,15.35
2019-04-03T18:49:49.031Z,15.20
2019-04-03T18:52:17.272Z,19.02
2019-04-03T18:54:45.694Z,14.35
2019-04-03T18:57:15.011Z,14.68
2019-04-03T18:59:43.929Z,15.70
2019-04-03T19:02:12.158Z,17.07
2019-04-03T19:04:40.391Z,20.15
2019-04-03T19:07:09.020Z,20.43
2019-04-03T19:09:37.261Z,22.37
2019-04-03T19:12:08.629Z,23.32
2019-04-03T19:14:36.633Z,42.17
2019-04-03T19:17:04.876Z,20.27
2019-04-03T19:19:33.712Z,16.95
2019-04-03T19:22:02.071Z,17.20
2019-04-03T19:24:30.344Z,18.50
2019-04-03T19:26:58.591Z,18.17
2019-04-03T19:29:26.813Z,16.15
2019-04-03T19:31:55.623Z,18.50
2019-04-03T19:34:23.952Z,17.95
2019-04-03T19:36:52.409Z,21.37
2019-04-03T19:39:20.715Z,17.23
2019-04-03T19:41:48.963Z,22.27
2019-04-03T19:44:18.072Z,20.12
2019-04-03T19:46:47.028Z,19.15
2019-04-03T19:49:15.249Z,21.55
2019-04-03T19:51:43.483Z,19.90
2019-04-03T19:54:11.708Z,20.68
2019-04-03T19:56:39.957Z,20.30
2019-04-03T19:59:08.230Z,20.17
2019-04-03T20:01:38.783Z,19.23
2019-04-03T20:04:06.666Z,20.97
2019-04-03T20:06:35.093Z,20.65
2019-04-03T20:09:05.334Z,21.87
2019-04-03T20:11:34.170Z,22.50
2019-04-03T20:14:03.561Z,20.32
2019-04-03T20:16:31.773Z,21.77
2019-04-03T20:19:00.022Z,25.62
2019-04-03T20:21:28.239Z,22.62
2019-04-03T20:23:56.491Z,23.47
2019-04-03T20:26:24.726Z,28.27
2019-04-03T20:28:52.977Z,30.45
2019-04-03T20:31:21.220Z,31.55
2019-04-03T20:33:49.490Z,29.20
2019-04-03T20:36:18.500Z,29.75
2019-04-03T20:38:47.690Z,31.33
2019-04-03T20:41:15.953Z,30.17
2019-04-03T20:43:47.160Z,29.98
2019-04-03T20:46:14.232Z,25.30
2019-04-03T20:48:42.462Z,27.73
2019-04-03T20:51:10.708Z,29.25
2019-04-03T20:53:38.975Z,32.95
2019-04-03T20:56:07.384Z,30.35
2019-04-03T20:58:35.788Z,34.85
2019-04-03T21:01:06.865Z,32.90
2019-04-03T21:03:34.082Z,32.03
2019-04-03T21:06:02.314Z,32.53
2019-04-03T21:08:31.683Z,30.95
2019-04-03T21:11:02.294Z,32.50
2019-04-03T21:13:30.181Z,33.85
2019-04-03T21:15:58.516Z,30.90
2019-04-03T21:18:26.748Z,34.18
2019-04-03T21:20:55.332Z,34.35
2019-04-03T21:23:23.713Z,33.60
2019-04-03T21:25:52.001Z,34.73
2019-04-03T21:28:20.223Z,32.15
2019-04-03T21:30:48.461Z,34.13
2019-04-03T21:33:17.431Z,35.63
2019-04-03T21:35:45.973Z,35.63
2019-04-03T21:38:14.392Z,34.03
2019-04-03T21:40:42.630Z,32.53
2019-04-03T21:43:11.523Z,32.83
2019-04-03T21:45:39.763Z,31.73
2019-04-03T21:48:08.313Z,36.55
2019-04-03T21:50:36.566Z,32.55
2019-04-03T21:53:04.786Z,34.20
2019-04-03T21:55:34.739Z,35.00
2019-04-03T21:58:03.158Z,37.25
2019-04-03T22:00:58.872Z,36.50
2019-04-03T22:03:27.127Z,30.37
2019-04-03T22:05:56.066Z,37.23
2019-04-03T22:08:24.989Z,29.92
2019-04-03T22:10:53.204Z,35.05
2019-04-03T22:13:21.494Z,36.38
2019-04-03T22:15:49.841Z,36.48
2019-04-03T22:18:18.142Z,38.33
2019-04-03T22:20:46.366Z,40.33
2019-04-03T22:23:14.640Z,33.70
2019-04-03T22:25:42.868Z,40.12
2019-04-03T22:28:13.209Z,34.65
2019-04-03T22:30:41.219Z,43.48
2019-04-03T22:33:09.512Z,37.15
2019-04-03T22:35:38.102Z,41.10
2019-04-03T22:38:06.366Z,40.20
2019-04-03T22:40:34.656Z,38.42
2019-04-03T22:43:02.886Z,40.08
2019-04-03T22:45:31.142Z,37.83
2019-04-03T22:47:59.545Z,46.85
2019-04-03T22:50:27.824Z,39.98
2019-04-03T22:52:56.060Z,35.58
2019-04-03T22:55:24.281Z,44.45
2019-04-03T22:57:53.129Z,43.63
2019-04-03T23:00:21.347Z,51.85
2019-04-03T23:02:49.780Z,49.40
2019-04-03T23:05:18.036Z,52.60
2019-04-03T23:07:46.262Z,48.73
2019-04-03T23:10:14.496Z,46.30
2019-04-03T23:12:42.721Z,52.27
2019-04-03T23:15:11.067Z,48.68
2019-04-03T23:17:45.435Z,42.67
2019-04-03T23:20:16.899Z,47.75
2019-04-03T23:22:45.147Z,54.25
2019-04-03T23:25:13.558Z,45.60
2019-04-03T23:27:41.784Z,51.40
2019-04-03T23:30:10.885Z,56.35
2019-04-03T23:32:39.446Z,47.65
2019-04-03T23:35:08.296Z,45.60
2019-04-03T23:37:36.701Z,58.33
2019-04-03T23:40:05.878Z,56.15
2019-04-03T23:42:34.144Z,51.05
2019-04-03T23:45:02.381Z,57.38
2019-04-03T23:47:31.650Z,61.02
2019-04-03T23:49:59.881Z,51.80
2019-04-03T23:52:29.966Z,57.75
2019-04-03T23:54:58.099Z,53.23
2019-04-03T23:57:26.358Z,58.08
2019-04-03T23:59:54.587Z,54.23
